Terminal Aerodrome Forecast
Issued by NWS

Home | Current Version | Previous Version | Text Only | Print | Product List | Glossary On
Versions: 1 2 3 4 5 6 7 8 9 10 11 12 13 14 15 16 17
456
FTUS46 KEKA 030522
TAFCEC
TAF
KCEC 030522Z 0306/0406 16005KT 5SM BR SCT007 OVC015
     FM030900 VRB03KT 3SM -DZ SCT003 BKN015 OVC025
     FM031900 32009KT P6SM BKN025=

USA.gov is the U.S. government's official web portal to all federal, state and local government web resources and services.